Enter the Airport ICAO Code

Search by Airport or City

Current Weather

LEGR | Federico García Lorca Airport (Granada Jaén Airport)

Granada, Andalusia, Spain

Last Update 15 Minutes Ago

Clear Sky

Temperature of 16 ºC

Light Winds from Variable Directions

Temperature

16 ºC

Dew Point Temperature

07 ºC

Relative Humidity

55.27 %

Wind Direction

Variable

Wind Velocity

4 km/h (02 kt)

Gusts

None

Visibility

No Significant Reductions

Sea Level Pressure

1022 hPa (Hectopascals)

Layers of Clouds

None

METAR LEGR 202230Z AUTO VRB02KT CAVOK 16/07 Q1022

Weather Forecast

LEGR | Federico García Lorca Airport (Granada Jaén Airport)

Granada, Andalusia, Spain

Forecast valid for the next 19 Hours

From now on it is expected:

Clear Sky

Light Winds from Variable Directions

In 12 to 14 hours it is expected the begining of:

Moderate Winds from West

Maximum Temperature

29 ºC in 16 Hours

Minimum Temperature

09 ºC in 7 Hours

TAF LEGR 201700Z 2018/2118 VRB02KT CAVOK TX29/2115Z TN09/2106Z BECMG 2111/2113 29010KT